This is the latest recevied weather packets stored in our database for station/object WB6ANP. If no packets are shown the sender has not sent any weather packets the latest 10 day(s).
| Time | Temp. | Humidity | Pressure | Rain* | Wind** | Luminosity | Snow |
|---|---|---|---|---|---|---|---|
| 1777410309 | 27.78° C | 76% | 1008.1 hPa | 0 mm | - | 101 W/m² | - |
| 1777410004 | 27.78° C | 75% | 1008.6 hPa | 0 mm | - | 49 W/m² | - |
| 1777409699 | 28.33° C | 75% | 1008.9 hPa | 0 mm | - | 48 W/m² | - |
| 1777409395 | 28.89° C | 72% | 1008.9 hPa | 0 mm | - | 87 W/m² | - |
| 1777409091 | 28.89° C | 71% | 1009 hPa | 0 mm | - | 197 W/m² | - |
| 1777408787 | 28.89° C | 72% | 1008.7 hPa | 0 mm | - | 258 W/m² | - |
| 1777408483 | 28.89° C | 72% | 1008.5 hPa | 0 mm | - | 204 W/m² | - |
| 1777408178 | 28.89° C | 72% | 1008.6 hPa | 0 mm | - | 161 W/m² | - |
| 1777407873 | 28.89° C | 71% | 1008.8 hPa | 0 mm | - | 164 W/m² | - |
| 1777407572 | 28.89° C | 72% | 1009.1 hPa | 0 mm | - | 219 W/m² | - |
| 1777407271 | 28.89° C | 72% | 1009.3 hPa | 0 mm | - | 212 W/m² | - |
| 1777406971 | 29.44° C | 72% | 1009 hPa | 0 mm | - | 294 W/m² | - |
| 1777406665 | 28.89° C | 71% | 1008.8 hPa | 0 mm | - | 339 W/m² | - |
| 1777406362 | 29.44° C | 68% | 1008.6 hPa | 0 mm | - | 192 W/m² | - |
| 1777406061 | 30° C | 67% | 1008.8 hPa | 0 mm | - | 260 W/m² | - |
| 1777405758 | 30° C | 67% | 1008.7 hPa | 0 mm | - | 375 W/m² | - |
| 1777405454 | 30.56° C | 67% | 1008.7 hPa | 0 mm | - | 884 W/m² | - |
| 1777405152 | 30° C | 68% | 1008.9 hPa | 0 mm | - | 890 W/m² | - |
| 1777404849 | 30.56° C | 66% | 1009.2 hPa | 0 mm | - | 387 W/m² | - |
| 1777404547 | 30° C | 69% | 1009.1 hPa | 0 mm | - | 1044 W/m² | - |
| 1777404242 | 30.56° C | 68% | 1009.5 hPa | 0 mm | - | 1058 W/m² | - |
| 1777403939 | 29.44° C | 72% | 1009.8 hPa | 0 mm | - | 628 W/m² | - |
| 1777403638 | 29.44° C | 74% | 1009.7 hPa | 0 mm | - | 904 W/m² | - |
| 1777403333 | 29.44° C | 74% | 1010.1 hPa | 0 mm | - | 642 W/m² | - |
| 1777403033 | 29.44° C | 73% | 1010 hPa | 0 mm | - | 482 W/m² | - |
* Rain latest hour (hover to see other rain measurements)
** Current wind speed in m/s (hover to see current wind gust speed)